Time;durP1;ratioP1;P1;durP2;ratioP2;P2;SDS_P1;SDS_P2;PMS_P1;PMS_P2;Temp;Humidity;BMP_temperature;BMP_pressure;BME280_temperature;BME280_humidity;BME280_pressure;Samples;Min_cycle;Max_cycle;Signal;HPM_P1;HPM_P2
2021/05/04 00:01:35;;;;;;;1.38;0.50;;;20.80;46.80;;;;;;6249788;28;20036;-75
2021/05/04 00:04:36;;;;;;;0.73;0.52;;;20.80;46.80;;;;;;6250252;28;20440;-75
2021/05/04 00:07:36;;;;;;;0.57;0.43;;;20.80;46.80;;;;;;6249707;28;20056;-75
2021/05/04 00:10:37;;;;;;;0.73;0.63;;;20.80;46.80;;;;;;6249796;28;20021;-75
2021/05/04 00:13:37;;;;;;;0.90;0.60;;;20.80;46.80;;;;;;6250493;28;20025;-75
2021/05/04 00:16:38;;;;;;;0.45;0.40;;;20.80;46.80;;;;;;6249980;28;20056;-75
2021/05/04 00:19:39;;;;;;;0.60;0.60;;;20.80;46.80;;;;;;6249467;28;20083;-75
2021/05/04 00:22:40;;;;;;;0.43;0.43;;;20.80;46.80;;;;;;6249309;28;20496;-75
2021/05/04 00:25:41;;;;;;;0.40;0.40;;;20.80;46.80;;;;;;6249595;28;20029;-75
2021/05/04 00:28:41;;;;;;;0.50;0.50;;;20.80;46.80;;;;;;6249338;28;20036;-75
2021/05/04 00:31:42;;;;;;;0.60;0.50;;;20.80;46.80;;;;;;6249288;28;20388;-75
2021/05/04 00:34:42;;;;;;;0.40;0.40;;;20.80;46.80;;;;;;6247984;28;20045;-75
2021/05/04 00:37:43;;;;;;;0.50;0.50;;;20.80;46.80;;;;;;6247966;28;20056;-76
2021/05/04 00:40:43;;;;;;;0.70;0.60;;;20.80;46.80;;;;;;6249320;28;20087;-75
2021/05/04 00:43:44;;;;;;;0.65;0.50;;;20.80;46.80;;;;;;6249268;28;20049;-75
2021/05/04 00:46:45;;;;;;;1.02;0.55;;;20.80;46.80;;;;;;6248975;28;20026;-76
2021/05/04 00:49:45;;;;;;;1.45;0.63;;;20.80;46.80;;;;;;6249203;28;20021;-75
2021/05/04 00:52:46;;;;;;;0.55;0.52;;;20.80;46.80;;;;;;6249188;28;20459;-75
2021/05/04 00:55:48;;;;;;;0.50;0.47;;;20.80;46.80;;;;;;6247621;28;20021;-76
2021/05/04 00:58:51;;;;;;;0.95;0.50;;;20.80;46.80;;;;;;6247554;28;20065;-76
2021/05/04 01:01:52;;;;;;;0.52;0.47;;;20.80;46.80;;;;;;6248461;28;20025;-75
2021/05/04 01:04:53;;;;;;;0.50;0.50;;;20.80;46.80;;;;;;6249042;28;20148;-76
2021/05/04 01:07:53;;;;;;;0.43;0.43;;;20.80;46.80;;;;;;6248636;28;20030;-75
2021/05/04 01:10:56;;;;;;;0.43;0.40;;;20.80;46.80;;;;;;6248285;28;20108;-75
2021/05/04 01:13:57;;;;;;;0.77;0.45;;;20.80;46.80;;;;;;6248595;28;20021;-75
2021/05/04 01:16:58;;;;;;;0.60;0.47;;;20.80;46.70;;;;;;6248471;28;20029;-75
2021/05/04 01:19:58;;;;;;;0.63;0.43;;;20.80;46.80;;;;;;6248385;28;20112;-75
2021/05/04 01:22:59;;;;;;;0.63;0.30;;;20.80;46.80;;;;;;6247049;28;20030;-75
2021/05/04 01:25:59;;;;;;;0.65;0.50;;;20.80;46.80;;;;;;6246977;28;20322;-76
2021/05/04 01:29:00;;;;;;;0.50;0.50;;;20.80;46.80;;;;;;6246888;28;20072;-75
2021/05/04 01:32:00;;;;;;;1.58;0.55;;;20.80;46.80;;;;;;6248715;28;20053;-75
2021/05/04 01:35:01;;;;;;;0.90;0.60;;;20.80;46.80;;;;;;6247826;28;20057;-75
2021/05/04 01:38:02;;;;;;;0.68;0.52;;;20.80;46.80;;;;;;6247825;28;20033;-75
2021/05/04 01:41:02;;;;;;;0.63;0.40;;;20.80;46.80;;;;;;6247944;28;20136;-75
2021/05/04 01:44:05;;;;;;;2.13;0.50;;;20.80;46.70;;;;;;6247997;28;20033;-76
2021/05/04 01:47:06;;;;;;;0.55;0.45;;;20.80;46.80;;;;;;6248055;28;20069;-76
2021/05/04 01:50:08;;;;;;;0.93;0.60;;;20.80;46.80;;;;;;6247972;28;20507;-75
2021/05/04 01:53:08;;;;;;;0.55;0.38;;;20.80;46.70;;;;;;6247814;28;20021;-75
2021/05/04 01:56:09;;;;;;;1.55;0.40;;;20.80;46.80;;;;;;6247651;28;20029;-75
2021/05/04 01:59:09;;;;;;;0.60;0.40;;;20.80;46.80;;;;;;6247478;28;20017;-75
2021/05/04 02:02:10;;;;;;;1.13;0.50;;;20.80;46.80;;;;;;6247546;28;20040;-75
2021/05/04 02:05:12;;;;;;;0.40;0.40;;;20.80;46.80;;;;;;6247299;28;20029;-75
2021/05/04 02:08:12;;;;;;;0.50;0.47;;;20.80;46.80;;;;;;6247231;28;20385;-75
2021/05/04 02:11:13;;;;;;;0.55;0.50;;;20.80;46.80;;;;;;6247422;28;20053;-75
2021/05/04 02:14:13;;;;;;;0.75;0.55;;;20.80;46.90;;;;;;6246621;28;20017;-76
2021/05/04 02:17:14;;;;;;;0.40;0.30;;;20.80;46.80;;;;;;6247149;28;20488;-75
2021/05/04 02:20:15;;;;;;;0.40;0.30;;;20.80;46.80;;;;;;6246888;28;20079;-75
2021/05/04 02:23:15;;;;;;;0.35;0.35;;;20.80;46.80;;;;;;6246965;28;20392;-75
2021/05/04 02:26:17;;;;;;;0.47;0.40;;;20.80;46.80;;;;;;6246959;28;20029;-75
2021/05/04 02:29:18;;;;;;;0.63;0.40;;;20.80;46.70;;;;;;6246799;28;20477;-75
2021/05/04 02:32:18;;;;;;;0.40;0.40;;;20.80;46.80;;;;;;6247029;28;20028;-75
2021/05/04 02:35:19;;;;;;;0.40;0.40;;;20.80;46.70;;;;;;6245229;28;20543;-75
2021/05/04 02:38:19;;;;;;;0.50;0.30;;;20.80;46.80;;;;;;6246591;28;20026;-75
2021/05/04 02:41:20;;;;;;;0.63;0.60;;;20.80;46.80;;;;;;6242374;28;20376;-76
2021/05/04 02:44:20;;;;;;;0.50;0.40;;;20.80;46.80;;;;;;6246568;28;20117;-75
2021/05/04 02:47:21;;;;;;;0.50;0.40;;;20.80;46.80;;;;;;6246717;28;20123;-75
2021/05/04 02:50:21;;;;;;;0.63;0.40;;;20.80;46.70;;;;;;6246059;28;20372;-76
2021/05/04 02:53:22;;;;;;;0.70;0.38;;;20.80;46.80;;;;;;6246508;28;20029;-75
2021/05/04 02:56:23;;;;;;;0.30;0.30;;;20.80;46.70;;;;;;6246274;28;20017;-76
2021/05/04 02:59:23;;;;;;;0.50;0.50;;;20.80;46.70;;;;;;6246062;28;20399;-75
2021/05/04 03:02:24;;;;;;;2.95;0.52;;;20.80;46.80;;;;;;6246244;28;20116;-75
2021/05/04 03:05:25;;;;;;;1.27;0.50;;;20.80;46.70;;;;;;6244636;28;20091;-76
2021/05/04 03:08:25;;;;;;;0.45;0.40;;;20.80;46.60;;;;;;6244897;28;20025;-76
2021/05/04 03:11:26;;;;;;;0.50;0.50;;;20.80;46.70;;;;;;6245990;28;20079;-75
2021/05/04 03:14:26;;;;;;;0.43;0.40;;;20.80;46.80;;;;;;6246280;28;20041;-75
2021/05/04 03:17:27;;;;;;;0.75;0.45;;;20.80;46.80;;;;;;6245820;28;20487;-75
2021/05/04 03:20:28;;;;;;;0.68;0.30;;;20.80;46.70;;;;;;6245559;28;20032;-75
2021/05/04 03:23:29;;;;;;;0.75;0.57;;;20.80;46.70;;;;;;6245606;28;20112;-76
2021/05/04 03:26:29;;;;;;;0.60;0.40;;;20.70;46.70;;;;;;6245799;28;20061;-75
2021/05/04 03:29:30;;;;;;;0.40;0.40;;;20.70;46.60;;;;;;6243824;28;20380;-76
2021/05/04 03:32:30;;;;;;;0.40;0.38;;;20.80;46.80;;;;;;6244456;28;20048;-75
2021/05/04 03:35:31;;;;;;;0.47;0.40;;;20.70;46.50;;;;;;6245411;28;20053;-75
2021/05/04 03:38:33;;;;;;;0.50;0.50;;;20.70;46.60;;;;;;6245571;28;20037;-75
2021/05/04 03:41:34;;;;;;;0.80;0.47;;;20.80;46.80;;;;;;6245509;28;20045;-75
2021/05/04 03:44:34;;;;;;;0.95;0.50;;;20.70;46.70;;;;;;6244263;28;20021;-75
2021/05/04 03:47:36;;;;;;;0.43;0.43;;;20.70;46.70;;;;;;6245488;28;20017;-75
2021/05/04 03:50:37;;;;;;;0.95;0.60;;;20.70;46.60;;;;;;6244907;28;20026;-75
2021/05/04 03:53:38;;;;;;;0.50;0.38;;;20.80;46.60;;;;;;6245755;28;20087;-75
2021/05/04 03:56:39;;;;;;;0.70;0.50;;;20.80;46.60;;;;;;6245303;28;20026;-75
2021/05/04 04:03:36;;;;;;;1.20;0.63;;;20.80;46.60;;;;;;6245555;28;20037;-75
2021/05/04 04:06:37;;;;;;;0.77;0.45;;;20.70;46.60;;;;;;6245033;28;20412;-76
2021/05/04 04:09:37;;;;;;;0.40;0.40;;;20.70;46.50;;;;;;6243980;28;20061;-75
2021/05/04 04:12:39;;;;;;;0.50;0.50;;;20.80;46.60;;;;;;6245315;28;20068;-76
2021/05/04 04:15:40;;;;;;;0.40;0.40;;;20.70;46.60;;;;;;6244062;28;20079;-76
2021/05/04 04:18:41;;;;;;;0.40;0.40;;;20.70;46.50;;;;;;6245091;28;20025;-76
2021/05/04 04:21:41;;;;;;;0.40;0.40;;;20.80;46.60;;;;;;6244907;28;20444;-76
2021/05/04 04:24:42;;;;;;;0.85;0.50;;;20.70;46.50;;;;;;6245158;28;20045;-76
2021/05/04 04:27:43;;;;;;;0.45;0.40;;;20.80;46.60;;;;;;6245138;28;20515;-76
2021/05/04 04:30:43;;;;;;;0.70;0.50;;;20.80;46.50;;;;;;6245063;28;20043;-75
2021/05/04 04:33:44;;;;;;;0.30;0.30;;;20.80;46.60;;;;;;6244801;28;20480;-76
2021/05/04 04:36:45;;;;;;;0.68;0.57;;;20.80;46.60;;;;;;6244908;28;20109;-77
2021/05/04 04:39:45;;;;;;;0.40;0.40;;;20.80;46.60;;;;;;6249611;28;20026;-76
2021/05/04 04:42:47;;;;;;;0.40;0.40;;;20.80;46.60;;;;;;6248360;28;20049;-76
2021/05/04 04:45:47;;;;;;;0.50;0.50;;;20.70;46.50;;;;;;6249472;28;20491;-77
2021/05/04 04:48:48;;;;;;;0.85;0.50;;;20.70;46.50;;;;;;6249198;28;20028;-76
2021/05/04 04:51:48;;;;;;;0.68;0.40;;;20.80;46.60;;;;;;6249458;28;20036;-76
2021/05/04 04:54:49;;;;;;;0.73;0.52;;;20.80;46.50;;;;;;6249551;28;20404;-76
2021/05/04 04:57:49;;;;;;;0.68;0.60;;;20.80;46.60;;;;;;6237164;28;20433;-76
2021/05/04 05:00:50;;;;;;;1.17;0.40;;;20.80;46.50;;;;;;6245069;28;20056;-75
2021/05/04 05:03:51;;;;;;;4.95;0.70;;;20.80;46.50;;;;;;6248837;28;20061;-76
2021/05/04 05:06:52;;;;;;;0.95;0.70;;;20.80;46.50;;;;;;6245072;28;20033;-75
2021/05/04 05:09:52;;;;;;;0.88;0.40;;;20.80;46.70;;;;;;6242686;28;20029;-75
2021/05/04 05:12:53;;;;;;;0.55;0.45;;;20.80;46.70;;;;;;6236856;28;20024;-75
2021/05/04 05:15:53;;;;;;;0.68;0.45;;;20.80;46.70;;;;;;6247708;28;20021;-76
2021/05/04 05:18:54;;;;;;;2.30;0.60;;;20.80;46.80;;;;;;6247422;28;20022;-75
2021/05/04 05:21:55;;;;;;;0.65;0.50;;;20.80;46.80;;;;;;6247818;28;20087;-76
2021/05/04 05:24:56;;;;;;;2.03;0.45;;;20.80;46.80;;;;;;6246040;28;20464;-76
2021/05/04 05:27:57;;;;;;;0.73;0.40;;;20.80;46.80;;;;;;6247681;28;20067;-75
2021/05/04 05:30:57;;;;;;;1.40;0.60;;;20.80;46.90;;;;;;6247450;28;20461;-76
2021/05/04 05:33:58;;;;;;;0.60;0.40;;;20.80;46.90;;;;;;6245976;28;20049;-76
2021/05/04 05:36:58;;;;;;;0.63;0.45;;;20.80;46.90;;;;;;6247436;28;20033;-76
2021/05/04 05:39:59;;;;;;;0.73;0.70;;;20.80;46.80;;;;;;6246894;28;20431;-76
2021/05/04 05:42:59;;;;;;;4.60;0.73;;;20.90;46.70;;;;;;6246927;28;20044;-76
2021/05/04 05:46:02;;;;;;;3.38;0.80;;;20.90;46.60;;;;;;6246919;28;20392;-76
2021/05/04 05:49:03;;;;;;;0.95;0.60;;;20.90;47.40;;;;;;6244954;28;20072;-77
2021/05/04 05:52:03;;;;;;;1.58;0.82;;;20.90;46.70;;;;;;6247259;28;20026;-76
2021/05/04 05:55:04;;;;;;;1.52;0.50;;;20.90;46.70;;;;;;6247027;28;20030;-76
2021/05/04 05:58:05;;;;;;;1.38;0.68;;;20.90;46.80;;;;;;6246448;28;20060;-76
2021/05/04 06:01:05;;;;;;;1.33;0.60;;;20.90;46.80;;;;;;6241371;28;20053;-75
2021/05/04 06:04:06;;;;;;;1.20;0.68;;;20.90;46.80;;;;;;6263130;28;20066;-76
2021/05/04 06:07:07;;;;;;;4.15;0.63;;;20.90;46.80;;;;;;6246719;28;20029;-76
2021/05/04 06:10:08;;;;;;;1.05;0.88;;;20.90;46.80;;;;;;6246283;28;20040;-76
2021/05/04 06:13:09;;;;;;;6.65;0.60;;;20.80;46.60;;;;;;6247611;28;20392;-76
2021/05/04 06:16:10;;;;;;;0.50;0.50;;;20.90;46.80;;;;;;6247595;28;20026;-76
2021/05/04 06:19:11;;;;;;;5.13;0.73;;;20.80;46.60;;;;;;6246642;28;20105;-76
2021/05/04 06:22:11;;;;;;;0.50;0.47;;;20.80;46.60;;;;;;6247724;28;20096;-76
2021/05/04 06:25:12;;;;;;;0.73;0.55;;;20.80;46.50;;;;;;6247297;28;20463;-76
2021/05/04 06:28:13;;;;;;;0.55;0.50;;;20.80;46.50;;;;;;6245917;28;20040;-76
2021/05/04 06:31:15;;;;;;;1.20;0.65;;;20.90;46.60;;;;;;6247293;28;20025;-76
2021/05/04 06:34:16;;;;;;;0.77;0.60;;;20.80;46.50;;;;;;6246695;28;20053;-75
2021/05/04 06:37:16;;;;;;;2.80;0.60;;;20.80;46.50;;;;;;6246908;28;20040;-75
2021/05/04 06:40:17;;;;;;;1.38;0.70;;;20.80;47.20;;;;;;6245792;28;20503;-76
2021/05/04 06:43:18;;;;;;;2.35;0.70;;;20.80;46.50;;;;;;6247233;28;20037;-76
2021/05/04 06:46:18;;;;;;;1.38;0.70;;;20.80;46.50;;;;;;6246834;28;20061;-76
2021/05/04 06:49:19;;;;;;;1.13;0.50;;;20.80;46.40;;;;;;6246651;28;20151;-76
2021/05/04 06:52:19;;;;;;;0.82;0.55;;;20.80;46.40;;;;;;6244507;28;20029;-75
2021/05/04 06:55:20;;;;;;;1.35;0.57;;;20.90;46.50;;;;;;6246524;28;20033;-76
2021/05/04 06:58:21;;;;;;;1.00;0.50;;;20.80;46.40;;;;;;6246064;28;20029;-76
2021/05/04 07:01:21;;;;;;;1.00;0.60;;;20.80;46.40;;;;;;6245774;28;20029;-75
2021/05/04 07:04:22;;;;;;;0.75;0.65;;;20.80;46.40;;;;;;6263609;28;20044;-75
2021/05/04 07:07:22;;;;;;;1.38;0.50;;;20.80;46.40;;;;;;6236503;28;20538;-76
2021/05/04 07:10:23;;;;;;;1.48;0.70;;;20.80;46.30;;;;;;6240447;28;20128;-76
2021/05/04 07:13:23;;;;;;;0.88;0.70;;;20.80;46.30;;;;;;6246528;28;20034;-75
2021/05/04 07:16:24;;;;;;;0.75;0.60;;;20.80;46.30;;;;;;6244954;28;20082;-76
2021/05/04 07:19:24;;;;;;;0.60;0.50;;;20.80;46.30;;;;;;6245490;28;20022;-76
2021/05/04 07:22:27;;;;;;;0.88;0.50;;;20.80;46.30;;;;;;6245689;28;20029;-76
2021/05/04 07:25:28;;;;;;;3.03;1.02;;;20.80;46.30;;;;;;6245896;28;20057;-75
2021/05/04 07:28:28;;;;;;;0.50;0.40;;;20.80;46.40;;;;;;6246051;28;20502;-76
2021/05/04 07:31:30;;;;;;;0.52;0.50;;;20.90;46.40;;;;;;6243841;28;20026;-76
2021/05/04 07:34:31;;;;;;;0.60;0.60;;;20.80;46.70;;;;;;6246289;28;20094;-75
2021/05/04 07:37:35;;;;;;;3.75;0.60;;;20.80;46.70;;;;;;6244530;28;20480;-76
2021/05/04 07:40:37;;;;;;;1.45;0.55;;;20.80;46.80;;;;;;6245519;28;20037;-76
2021/05/04 07:43:38;;;;;;;1.17;0.63;;;20.80;46.70;;;;;;6245093;28;20033;-76
2021/05/04 07:46:38;;;;;;;2.78;0.70;;;20.80;46.60;;;;;;6245385;28;20024;-76
2021/05/04 07:49:47;;;;;;;1.60;0.85;;;20.90;46.80;;;;;;6244986;28;20029;-76
2021/05/04 07:52:48;;;;;;;1.00;0.77;;;20.80;46.60;;;;;;6244488;28;20365;-76
2021/05/04 07:55:49;;;;;;;1.08;0.70;;;20.80;46.70;;;;;;6243893;28;20034;-75
2021/05/04 07:58:49;;;;;;;3.08;0.80;;;20.80;46.50;;;;;;6245583;28;20026;-76
2021/05/04 08:01:50;;;;;;;1.45;0.63;;;20.90;46.80;;;;;;6243181;28;20112;-76
2021/05/04 08:04:50;;;;;;;3.17;0.60;;;20.80;46.80;;;;;;6245973;28;20365;-76
2021/05/04 08:07:51;;;;;;;0.82;0.70;;;20.80;46.70;;;;;;6245364;28;20125;-78
2021/05/04 08:10:51;;;;;;;1.02;0.68;;;20.80;46.70;;;;;;6244972;28;20040;-75
2021/05/04 08:13:52;;;;;;;1.17;0.70;;;20.80;46.80;;;;;;6250277;28;20041;-76
2021/05/04 08:16:54;;;;;;;0.47;0.47;;;20.80;46.70;;;;;;6249894;28;20053;-76
2021/05/04 08:19:57;;;;;;;2.08;0.60;;;20.80;46.80;;;;;;6248763;28;20041;-76
2021/05/04 08:22:58;;;;;;;1.58;0.60;;;20.80;46.80;;;;;;6249582;28;20037;-76
2021/05/04 08:25:59;;;;;;;1.75;0.80;;;20.80;46.80;;;;;;6247868;28;20033;-76
2021/05/04 08:29:00;;;;;;;2.30;0.60;;;20.80;46.80;;;;;;6249388;28;20025;-76
2021/05/04 08:32:02;;;;;;;1.45;0.57;;;20.80;46.80;;;;;;6249678;28;20020;-75
2021/05/04 08:35:03;;;;;;;2.15;0.70;;;20.80;46.80;;;;;;6249980;28;20530;-75
2021/05/04 08:38:04;;;;;;;0.70;0.65;;;20.80;46.80;;;;;;6249580;28;20026;-76
2021/05/04 08:41:07;;;;;;;1.35;0.60;;;20.80;46.80;;;;;;6248968;28;20537;-75
2021/05/04 08:44:13;;;;;;;1.27;0.60;;;20.80;46.80;;;;;;6250013;28;20037;-76
2021/05/04 08:47:16;;;;;;;4.72;0.70;;;20.90;47.00;;;;;;6248970;28;20345;-76
2021/05/04 08:50:19;;;;;;;1.85;0.60;;;20.80;46.90;;;;;;6247178;28;20022;-76
2021/05/04 08:53:20;;;;;;;2.60;0.68;;;20.80;46.90;;;;;;6248008;28;20025;-76
2021/05/04 08:56:21;;;;;;;0.95;0.68;;;20.90;47.00;;;;;;6249607;28;20423;-76
2021/05/04 08:59:21;;;;;;;2.67;0.65;;;20.80;46.90;;;;;;6249142;28;20507;-76
2021/05/04 09:02:23;;;;;;;0.82;0.60;;;20.80;46.90;;;;;;6248732;28;20041;-76
2021/05/04 09:05:23;;;;;;;4.22;0.80;;;20.80;46.90;;;;;;6249445;28;20025;-76
2021/05/04 09:08:42;;;;;;;1.48;0.70;;;20.80;46.90;;;;;;6248416;28;20384;-75
2021/05/04 09:17:50;;;;;;;2.28;0.60;;;20.80;47.00;;;;;;6248739;28;20121;-76
2021/05/04 09:21:03;;;;;;;0.47;0.45;;;20.80;46.90;;;;;;6246987;28;20064;-75
2021/05/04 09:24:27;;;;;;;1.60;0.73;;;20.80;47.00;;;;;;6247723;28;20480;-76
2021/05/04 09:27:28;;;;;;;1.88;0.60;;;20.80;46.90;;;;;;6247651;28;20018;-75
2021/05/04 09:30:29;;;;;;;1.85;0.77;;;20.90;47.10;;;;;;6247280;28;20164;-75
2021/05/04 09:33:38;;;;;;;0.93;0.40;;;20.80;47.00;;;;;;6246964;28;20064;-75
2021/05/04 09:36:47;;;;;;;0.85;0.60;;;20.90;47.10;;;;;;6247555;28;20499;-75
2021/05/04 09:39:48;;;;;;;0.93;0.55;;;20.80;47.00;;;;;;6247712;28;20021;-76
2021/05/04 09:43:02;;;;;;;1.45;0.50;;;20.80;47.00;;;;;;6244555;28;20519;-75
2021/05/04 09:46:02;;;;;;;1.38;0.60;;;20.80;47.00;;;;;;6246556;28;20176;-75
2021/05/04 09:49:03;;;;;;;2.13;0.50;;;20.80;47.00;;;;;;6247268;28;20033;-76
2021/05/04 09:56:01;;;;;;;2.30;0.60;;;20.80;47.00;;;;;;6206286;28;20037;-75
2021/05/04 09:59:02;;;;;;;0.68;0.52;;;20.80;47.00;;;;;;6245174;28;20510;-75
2021/05/04 10:02:03;;;;;;;2.78;0.60;;;20.80;47.00;;;;;;6245972;28;20029;-75
2021/05/04 10:05:06;;;;;;;0.60;0.60;;;20.80;47.00;;;;;;6246948;28;20083;-76
2021/05/04 10:08:06;;;;;;;1.98;0.70;;;20.90;47.80;;;;;;6242976;28;20060;-75
2021/05/04 10:11:13;;;;;;;1.08;0.80;;;20.80;47.00;;;;;;6240284;28;20029;-75
2021/05/04 10:14:14;;;;;;;0.55;0.55;;;20.90;47.10;;;;;;6246703;28;20160;-75
2021/05/04 10:17:19;;;;;;;3.58;0.70;;;20.80;47.00;;;;;;6247078;28;20033;-75
2021/05/04 10:20:20;;;;;;;2.15;0.68;;;20.90;47.10;;;;;;6244433;28;20079;-76
2021/05/04 10:23:23;;;;;;;2.55;0.70;;;20.80;47.10;;;;;;6245537;28;20025;-75
2021/05/04 10:26:30;;;;;;;2.20;0.95;;;20.80;47.00;;;;;;6245985;28;20064;-75
2021/05/04 10:29:31;;;;;;;4.47;0.70;;;20.80;47.00;;;;;;6246406;28;20053;-76
2021/05/04 10:33:00;;;;;;;1.75;0.65;;;20.90;47.10;;;;;;6245622;28;20052;-77
2021/05/04 10:36:02;;;;;;;3.83;0.70;;;20.90;47.30;;;;;;6245810;28;20041;-75
2021/05/04 10:39:03;;;;;;;0.52;0.50;;;20.90;47.20;;;;;;6246099;28;20456;-76
2021/05/04 10:42:06;;;;;;;0.93;0.60;;;20.90;47.10;;;;;;6246032;28;20598;-75
2021/05/04 10:45:09;;;;;;;1.00;0.70;;;20.90;47.10;;;;;;6246492;28;20022;-75
2021/05/04 10:48:10;;;;;;;1.13;0.60;;;20.90;47.10;;;;;;6244081;28;20033;-76
2021/05/04 10:51:16;;;;;;;1.02;0.60;;;20.90;47.10;;;;;;6244471;28;20616;-75
2021/05/04 10:54:21;;;;;;;1.85;0.60;;;20.90;47.10;;;;;;6242278;28;20036;-76
2021/05/04 10:57:22;;;;;;;1.25;0.80;;;20.90;47.10;;;;;;6245624;28;20025;-76
2021/05/04 11:00:52;;;;;;;1.08;0.73;;;20.90;47.10;;;;;;6245400;28;20025;-76
2021/05/04 11:03:57;;;;;;;1.35;0.75;;;20.90;47.20;;;;;;6240376;28;20477;-75
2021/05/04 11:06:58;;;;;;;1.15;0.68;;;20.90;47.20;;;;;;6242562;28;20483;-76
2021/05/04 11:10:12;;;;;;;1.75;0.60;;;20.90;47.10;;;;;;6231926;28;20036;-76
2021/05/04 11:13:49;;;;;;;1.58;0.60;;;20.90;47.20;;;;;;6244625;28;20032;-75
2021/05/04 11:16:56;;;;;;;0.98;0.60;;;20.90;47.10;;;;;;6244178;28;20555;-76
2021/05/04 11:19:57;;;;;;;1.02;0.60;;;20.90;47.10;;;;;;6245125;28;20095;-76
2021/05/04 11:22:57;;;;;;;0.93;0.60;;;20.90;47.80;;;;;;6245335;28;20037;-76
2021/05/04 11:25:58;;;;;;;0.93;0.50;;;20.90;47.20;;;;;;6245066;28;20044;-76
2021/05/04 11:29:09;;;;;;;1.52;0.60;;;20.90;47.20;;;;;;6243787;28;20036;-76
2021/05/04 11:32:23;;;;;;;0.98;0.60;;;20.90;47.20;;;;;;6245356;28;20456;-76
2021/05/04 11:35:36;;;;;;;0.85;0.70;;;20.90;47.20;;;;;;6245321;28;20049;-76
2021/05/04 11:38:36;;;;;;;0.95;0.70;;;20.90;47.20;;;;;;6244567;28;20488;-76
2021/05/04 11:41:37;;;;;;;1.20;0.70;;;20.90;47.20;;;;;;6246220;28;20030;-76
2021/05/04 11:44:37;;;;;;;0.52;0.43;;;20.90;47.20;;;;;;6243917;28;20033;-76
2021/05/04 11:47:52;;;;;;;1.92;0.70;;;20.90;47.20;;;;;;6248030;28;20025;-76
2021/05/04 11:50:53;;;;;;;0.93;0.60;;;20.90;47.20;;;;;;6248633;28;20021;-76
2021/05/04 11:53:54;;;;;;;0.45;0.45;;;20.90;47.20;;;;;;6251345;28;20264;-76
2021/05/04 11:56:54;;;;;;;0.57;0.50;;;20.90;47.20;;;;;;6249180;28;20025;-76
2021/05/04 11:59:55;;;;;;;1.00;0.60;;;20.90;47.20;;;;;;6250409;28;20082;-75
2021/05/04 12:02:55;;;;;;;0.77;0.40;;;20.90;47.20;;;;;;6249381;28;20041;-76
2021/05/04 12:05:57;;;;;;;0.47;0.40;;;20.90;47.20;;;;;;6250042;28;20511;-76
2021/05/04 12:09:11;;;;;;;2.97;0.63;;;20.90;47.30;;;;;;6244349;28;20034;-76
2021/05/04 12:12:14;;;;;;;2.05;0.50;;;20.90;47.20;;;;;;6250312;28;20025;-76
2021/05/04 12:15:18;;;;;;;1.67;0.60;;;20.90;47.20;;;;;;6249206;28;20072;-75
2021/05/04 12:18:21;;;;;;;1.50;0.60;;;20.90;47.20;;;;;;6250102;28;20052;-75
2021/05/04 12:21:22;;;;;;;0.60;0.50;;;20.90;47.30;;;;;;6249562;28;20025;-76
2021/05/04 12:24:22;;;;;;;0.55;0.52;;;20.90;47.30;;;;;;6248540;28;20103;-76
2021/05/04 12:27:24;;;;;;;0.70;0.55;;;20.90;47.20;;;;;;6247124;28;20022;-77
2021/05/04 12:30:25;;;;;;;1.20;0.80;;;20.90;47.60;;;;;;6249000;28;20017;-74
2021/05/04 12:33:26;;;;;;;27.73;3.72;;;21.00;47.30;;;;;;6248107;28;20488;-74
2021/05/04 12:36:50;;;;;;;13.32;1.40;;;21.10;47.70;;;;;;6247530;28;20029;-77
2021/05/04 12:39:50;;;;;;;19.88;2.17;;;21.10;47.40;;;;;;6247536;28;20038;-73
2021/05/04 12:43:12;;;;;;;9.27;1.30;;;21.20;47.20;;;;;;6248385;28;20112;-77
2021/05/04 12:46:23;;;;;;;13.05;1.52;;;21.20;46.60;;;;;;6245859;28;20033;-80
2021/05/04 12:49:41;;;;;;;6.65;1.10;;;21.10;47.20;;;;;;6244972;28;20184;-76
2021/05/04 12:52:41;;;;;;;8.25;1.27;;;21.10;47.20;;;;;;6237822;28;20030;-76
2021/05/04 12:55:58;;;;;;;3.90;1.33;;;21.00;47.20;;;;;;6249324;28;20523;-76
2021/05/04 12:59:02;;;;;;;6.47;1.15;;;21.00;47.30;;;;;;6248172;28;20431;-76
2021/05/04 13:02:06;;;;;;;7.75;1.33;;;21.00;47.30;;;;;;6247752;28;20037;-76
2021/05/04 13:05:25;;;;;;;3.33;1.10;;;21.00;47.30;;;;;;6247596;28;20025;-76
2021/05/04 13:08:25;;;;;;;3.10;0.93;;;21.00;47.40;;;;;;6248924;28;20060;-75
2021/05/04 13:12:15;;;;;;;1.77;0.85;;;21.00;47.30;;;;;;6249100;28;20022;-76
2021/05/04 13:29:28;;;;;;;5.13;0.88;;;21.00;47.30;;;;;;6247312;28;20483;-76
2021/05/04 13:32:29;;;;;;;2.03;0.80;;;21.00;47.30;;;;;;6246684;28;20029;-76
2021/05/04 13:35:35;;;;;;;1.52;0.77;;;21.00;47.40;;;;;;6247198;28;20107;-76
2021/05/04 13:38:47;;;;;;;4.60;0.82;;;21.00;47.30;;;;;;6244393;28;20030;-76
2021/05/04 13:48:29;;;;;;;1.77;0.70;;;20.90;47.30;;;;;;6236086;28;20531;-77
2021/05/04 13:51:29;;;;;;;1.73;0.80;;;20.90;47.30;;;;;;6246504;28;20112;-76
2021/05/04 13:54:30;;;;;;;2.05;0.95;;;20.90;47.30;;;;;;6247488;28;20099;-77
2021/05/04 13:57:33;;;;;;;3.10;0.80;;;20.90;47.30;;;;;;6242402;28;20022;-75
2021/05/04 14:00:40;;;;;;;1.52;0.70;;;20.90;47.30;;;;;;6230454;28;20459;-77
2021/05/04 14:03:57;;;;;;;2.67;0.60;;;20.90;47.50;;;;;;6247612;28;20057;-76
2021/05/04 14:26:59;;;;;;;7.57;0.82;;;21.00;47.40;;;;;;6246681;28;20108;-77
2021/05/04 14:30:01;;;;;;;1.25;0.70;;;21.00;47.60;;;;;;6247578;28;20082;-77
2021/05/04 14:33:02;;;;;;;6.72;0.70;;;21.00;47.60;;;;;;6244169;28;20067;-76
2021/05/04 14:39:34;;;;;;;1.42;0.60;;;21.00;47.50;;;;;;6224724;28;20087;-76
2021/05/04 14:58:45;;;;;;;2.58;0.70;;;20.90;47.40;;;;;;6246449;28;20037;-77
2021/05/04 15:01:46;;;;;;;1.38;0.52;;;20.90;47.40;;;;;;6246568;28;20032;-76
2021/05/04 15:04:56;;;;;;;2.15;0.60;;;20.90;47.40;;;;;;6245378;28;20030;-76
2021/05/04 15:07:57;;;;;;;1.45;0.50;;;20.90;47.40;;;;;;6245171;28;20064;-76
2021/05/04 15:10:57;;;;;;;2.08;0.60;;;21.00;47.50;;;;;;6246354;28;20078;-76
2021/05/04 15:13:59;;;;;;;2.15;0.55;;;20.90;47.40;;;;;;6246221;28;20025;-76
2021/05/04 15:17:06;;;;;;;1.83;0.60;;;20.90;47.40;;;;;;6246558;28;20423;-76
2021/05/04 15:23:27;;;;;;;1.98;0.70;;;20.90;47.40;;;;;;6231289;28;20037;-76
2021/05/04 15:26:28;;;;;;;2.85;0.82;;;20.90;47.40;;;;;;6246143;28;20393;-77
2021/05/04 15:29:28;;;;;;;5.38;0.70;;;20.90;47.50;;;;;;6244597;28;20025;-77
2021/05/04 15:32:32;;;;;;;12.40;1.02;;;21.00;47.70;;;;;;6257364;28;20026;-76
2021/05/04 15:35:34;;;;;;;11.15;0.93;;;21.00;47.70;;;;;;6246204;28;20045;-76
2021/05/04 15:38:37;;;;;;;16.50;0.85;;;21.00;47.70;;;;;;6244276;28;20037;-76
2021/05/04 15:41:40;;;;;;;13.55;1.05;;;20.90;47.50;;;;;;6246059;28;20420;-76
2021/05/04 15:44:40;;;;;;;12.68;1.33;;;20.90;47.60;;;;;;6245384;28;20033;-77
2021/05/04 15:47:51;;;;;;;20.77;1.30;;;20.90;47.30;;;;;;6245776;28;20111;-77
2021/05/04 15:51:20;;;;;;;12.35;0.80;;;20.90;47.20;;;;;;6236088;28;20120;-77
2021/05/04 15:54:28;;;;;;;9.27;0.93;;;20.90;46.80;;;;;;6245775;28;20029;-77
2021/05/04 16:00:59;;;;;;;6.10;1.20;;;20.90;47.00;;;;;;6244601;28;20037;-78
2021/05/04 16:07:20;;;;;;;9.50;1.00;;;20.90;46.90;;;;;;6245152;28;20456;-76
2021/05/04 16:10:21;;;;;;;7.65;0.95;;;20.90;47.60;;;;;;6245155;28;20064;-76
2021/05/04 16:13:22;;;;;;;9.88;0.75;;;20.90;44.80;;;;;;6245310;28;20476;-77
2021/05/04 16:16:24;;;;;;;8.55;0.82;;;20.90;46.70;;;;;;6245141;28;20063;-77
2021/05/04 16:19:31;;;;;;;4.35;0.73;;;20.90;46.50;;;;;;6244573;28;20032;-77
2021/05/04 16:22:38;;;;;;;4.35;0.88;;;20.90;46.40;;;;;;6242799;28;20476;-77
2021/05/04 16:26:28;;;;;;;5.55;0.85;;;20.90;46.50;;;;;;6242139;28;20040;-76
2021/05/04 16:32:03;;;;;;;3.20;1.23;;;20.90;46.50;;;;;;6242407;28;20060;-77
2021/05/04 16:35:04;;;;;;;3.83;0.50;;;20.90;46.50;;;;;;6245428;28;20512;-77
2021/05/04 16:38:05;;;;;;;4.70;0.70;;;20.90;46.50;;;;;;6245589;28;20472;-77
2021/05/04 16:41:05;;;;;;;5.57;0.80;;;20.90;46.50;;;;;;6247006;28;20036;-76
2021/05/04 16:44:06;;;;;;;3.38;1.08;;;20.90;46.50;;;;;;6245278;28;20469;-77
2021/05/04 16:47:07;;;;;;;5.03;0.68;;;20.90;46.50;;;;;;6245542;28;20031;-77
2021/05/04 16:50:08;;;;;;;3.53;0.80;;;20.90;46.60;;;;;;6245632;28;20400;-77
2021/05/04 16:53:09;;;;;;;1.35;0.70;;;20.90;46.60;;;;;;6246357;28;20063;-77
2021/05/04 16:56:09;;;;;;;3.58;0.80;;;20.90;46.70;;;;;;6246246;28;20401;-77
2021/05/04 16:59:10;;;;;;;1.75;0.60;;;20.90;46.70;;;;;;6244903;28;20033;-77
2021/05/04 17:02:13;;;;;;;1.25;0.50;;;20.90;46.70;;;;;;6240355;28;20029;-77
2021/05/04 17:05:17;;;;;;;1.83;0.68;;;20.90;46.80;;;;;;6224796;28;20175;-76
2021/05/04 17:08:34;;;;;;;2.85;0.50;;;20.90;46.80;;;;;;6246151;28;20029;-76
2021/05/04 17:11:35;;;;;;;1.85;0.90;;;20.90;46.70;;;;;;6244914;28;20029;-76
2021/05/04 17:14:36;;;;;;;1.23;0.57;;;20.90;46.80;;;;;;6245618;28;20083;-78
2021/05/04 17:17:36;;;;;;;2.42;1.00;;;20.90;46.60;;;;;;6244595;28;20026;-76